Time;durP1;ratioP1;P1;durP2;ratioP2;P2;SDS_P1;SDS_P2;PMS_P1;PMS_P2;Temp;Humidity;BMP_temperature;BMP_pressure;BME280_temperature;BME280_humidity;BME280_pressure;Samples;Min_cycle;Max_cycle;Signal;HPM_P1;HPM_P2
2021/12/20 00:01:10;;;;;;;9.13;6.70;;;;;;;;;;4970628;28;20638;-80
2021/12/20 00:03:36;;;;;;;12.00;7.85;;;;;;;;;;4970216;29;20547;-80
2021/12/20 00:06:05;;;;;;;10.40;7.65;;;;;;;;;;4949321;29;20563;-81
2021/12/20 00:08:31;;;;;;;12.15;8.20;;;;;;;;;;4952135;29;20189;-81
2021/12/20 00:10:57;;;;;;;12.25;8.07;;;;;;;;;;4951136;29;20186;-80
2021/12/20 00:13:24;;;;;;;8.15;6.63;;;;;;;;;;4934783;29;20645;-82
2021/12/20 00:15:50;;;;;;;10.35;8.00;;;;;;;;;;4930523;29;20206;-81
2021/12/20 00:18:16;;;;;;;14.63;8.30;;;;;;;;;;4932267;29;20189;-82
2021/12/20 00:20:42;;;;;;;13.18;8.52;;;;;;;;;;4932943;29;20186;-81
2021/12/20 00:23:08;;;;;;;11.20;8.82;;;;;;;;;;4932239;29;20182;-81
2021/12/20 00:25:34;;;;;;;10.90;8.68;;;;;;;;;;4944496;29;20190;-81
2021/12/20 00:28:00;;;;;;;9.82;8.00;;;;;;;;;;4932264;29;20277;-81
2021/12/20 00:30:27;;;;;;;11.77;9.30;;;;;;;;;;4932200;29;20178;-81
2021/12/20 00:32:53;;;;;;;13.15;9.98;;;;;;;;;;4933167;29;20236;-81
2021/12/20 00:35:20;;;;;;;14.68;11.18;;;;;;;;;;4932023;29;20181;-80
2021/12/20 00:40:31;;;;;;;13.13;9.30;;;;;;;;;;4932500;29;20253;-79
2021/12/20 00:42:58;;;;;;;15.77;10.00;;;;;;;;;;4944179;29;20537;-83
2021/12/20 00:45:26;;;;;;;14.50;9.30;;;;;;;;;;4929564;29;20193;-83
2021/12/20 00:47:52;;;;;;;18.40;10.48;;;;;;;;;;4931923;29;20686;-81
2021/12/20 00:50:19;;;;;;;16.95;11.10;;;;;;;;;;4947161;29;20185;-80
2021/12/20 00:52:46;;;;;;;13.55;10.00;;;;;;;;;;4929113;29;20206;-81
2021/12/20 00:55:15;;;;;;;19.55;12.18;;;;;;;;;;4929195;29;20197;-84
2021/12/20 00:57:41;;;;;;;18.13;10.45;;;;;;;;;;4924376;29;20178;-80
2021/12/20 01:00:08;;;;;;;14.30;10.20;;;;;;;;;;4929540;29;20192;-80
2021/12/20 01:02:34;;;;;;;16.60;10.40;;;;;;;;;;4927337;29;20206;-82
2021/12/20 01:05:00;;;;;;;14.98;10.48;;;;;;;;;;4935981;29;20216;-83
2021/12/20 01:07:28;;;;;;;15.95;10.80;;;;;;;;;;4966936;29;20927;-82
2021/12/20 01:09:57;;;;;;;16.58;10.48;;;;;;;;;;4945065;29;20188;-80
2021/12/20 01:12:27;;;;;;;15.05;10.13;;;;;;;;;;4951737;29;20212;-82
2021/12/20 01:14:58;;;;;;;15.23;10.18;;;;;;;;;;4967861;29;20184;-81
2021/12/20 01:17:24;;;;;;;14.73;10.20;;;;;;;;;;4966937;29;20575;-80
2021/12/20 01:19:51;;;;;;;15.18;10.77;;;;;;;;;;4946396;29;20193;-81
2021/12/20 01:22:17;;;;;;;12.43;9.15;;;;;;;;;;4966758;29;20188;-81
2021/12/20 01:24:42;;;;;;;15.70;10.68;;;;;;;;;;4966698;28;20198;-79
2021/12/20 01:27:08;;;;;;;17.42;9.63;;;;;;;;;;4949173;28;20180;-82
2021/12/20 01:29:34;;;;;;;14.10;9.80;;;;;;;;;;4967420;29;20191;-82
2021/12/20 01:32:00;;;;;;;14.30;9.90;;;;;;;;;;4966712;29;20192;-81
2021/12/20 01:34:26;;;;;;;15.52;11.43;;;;;;;;;;4966427;28;20255;-81
2021/12/20 01:36:53;;;;;;;12.20;9.13;;;;;;;;;;4966641;28;20187;-81
2021/12/20 01:39:19;;;;;;;13.45;9.18;;;;;;;;;;4966132;29;20180;-81
2021/12/20 01:41:45;;;;;;;16.75;10.70;;;;;;;;;;4967182;29;20184;-80
2021/12/20 01:44:12;;;;;;;13.93;10.50;;;;;;;;;;4966276;28;20192;-81
2021/12/20 01:46:38;;;;;;;16.45;11.30;;;;;;;;;;4945793;29;20199;-83
2021/12/20 01:49:08;;;;;;;14.27;10.30;;;;;;;;;;4964279;29;20184;-81
2021/12/20 01:54:04;;;;;;;16.38;11.07;;;;;;;;;;4966157;28;20208;-82
2021/12/20 01:56:33;;;;;;;14.52;10.50;;;;;;;;;;4966294;29;20531;-81
2021/12/20 01:59:03;;;;;;;15.23;9.75;;;;;;;;;;4965973;28;20223;-82
2021/12/20 02:01:29;;;;;;;16.38;9.77;;;;;;;;;;4945901;29;20185;-81
2021/12/20 02:03:59;;;;;;;14.18;10.68;;;;;;;;;;4965661;28;20188;-82
2021/12/20 02:06:33;;;;;;;14.98;10.15;;;;;;;;;;4950963;28;20231;-81
2021/12/20 02:09:00;;;;;;;12.13;8.88;;;;;;;;;;4965710;29;20187;-82
2021/12/20 02:11:26;;;;;;;13.25;9.90;;;;;;;;;;4965350;29;20323;-81
2021/12/20 02:13:52;;;;;;;10.90;8.43;;;;;;;;;;4965646;29;20215;-79
2021/12/20 02:16:19;;;;;;;10.50;7.78;;;;;;;;;;4958463;28;20189;-85
2021/12/20 02:18:45;;;;;;;8.52;6.85;;;;;;;;;;4945643;29;20187;-85
2021/12/20 02:21:11;;;;;;;12.82;9.60;;;;;;;;;;4966217;28;20200;-84
2021/12/20 02:23:37;;;;;;;11.52;8.70;;;;;;;;;;4949658;29;20203;-85
2021/12/20 02:26:04;;;;;;;10.55;8.68;;;;;;;;;;4964977;29;20188;-83
2021/12/20 02:28:36;;;;;;;10.88;8.38;;;;;;;;;;4944641;29;20188;-83
2021/12/20 02:39:11;;;;;;;10.38;8.50;;;;;;;;;;4964806;28;20583;-85
2021/12/20 02:41:37;;;;;;;10.48;8.20;;;;;;;;;;4966345;29;20180;-85
2021/12/20 02:44:05;;;;;;;11.10;9.27;;;;;;;;;;4958796;28;20184;-86
2021/12/20 02:48:57;;;;;;;13.40;10.97;;;;;;;;;;4964926;28;20215;-82
2021/12/20 02:51:26;;;;;;;11.35;8.80;;;;;;;;;;4964891;28;20471;-84
2021/12/20 02:53:52;;;;;;;12.60;9.60;;;;;;;;;;4937765;29;20208;-83
2021/12/20 02:56:18;;;;;;;10.18;9.00;;;;;;;;;;4964608;29;20548;-84
2021/12/20 02:58:44;;;;;;;17.85;10.20;;;;;;;;;;4962908;28;20372;-83
2021/12/20 03:01:10;;;;;;;15.00;10.60;;;;;;;;;;4942074;29;20291;-82
2021/12/20 03:03:36;;;;;;;13.10;10.25;;;;;;;;;;4950627;29;20192;-84
2021/12/20 03:06:13;;;;;;;13.90;10.63;;;;;;;;;;4947839;28;20295;-84
2021/12/20 03:08:40;;;;;;;11.45;10.02;;;;;;;;;;4945104;29;20191;-83
2021/12/20 03:11:06;;;;;;;13.27;10.80;;;;;;;;;;4947717;29;20188;-82
2021/12/20 03:13:32;;;;;;;14.80;10.23;;;;;;;;;;4941684;29;20216;-83
2021/12/20 03:15:58;;;;;;;16.33;10.38;;;;;;;;;;4951364;28;20236;-82
2021/12/20 03:18:24;;;;;;;13.70;10.88;;;;;;;;;;4962799;29;20685;-84
2021/12/20 03:20:50;;;;;;;13.50;10.45;;;;;;;;;;4944364;29;20244;-82
2021/12/20 03:23:16;;;;;;;14.35;11.05;;;;;;;;;;4962938;29;20206;-84
2021/12/20 03:25:42;;;;;;;15.35;11.88;;;;;;;;;;4944528;29;20329;-82
2021/12/20 03:28:08;;;;;;;13.60;11.80;;;;;;;;;;4944777;29;20189;-82
2021/12/20 03:30:34;;;;;;;15.55;11.85;;;;;;;;;;4944631;29;20457;-83
2021/12/20 03:33:00;;;;;;;15.18;12.15;;;;;;;;;;4957646;29;20209;-82
2021/12/20 03:35:26;;;;;;;13.32;10.65;;;;;;;;;;4955989;29;20215;-81
2021/12/20 03:37:52;;;;;;;14.95;12.40;;;;;;;;;;4962199;28;20195;-81
2021/12/20 03:40:18;;;;;;;23.13;12.25;;;;;;;;;;4946245;29;20187;-83
2021/12/20 03:42:45;;;;;;;14.73;11.55;;;;;;;;;;4962575;29;20192;-81
2021/12/20 03:45:13;;;;;;;18.40;13.02;;;;;;;;;;4963597;28;20176;-81
2021/12/20 03:47:40;;;;;;;16.83;12.77;;;;;;;;;;4947336;29;20204;-81
2021/12/20 03:50:06;;;;;;;17.73;13.57;;;;;;;;;;4944028;29;20265;-82
2021/12/20 03:52:32;;;;;;;18.13;12.82;;;;;;;;;;4964235;28;20236;-82
2021/12/20 03:54:59;;;;;;;18.10;14.17;;;;;;;;;;4964933;28;20180;-82
2021/12/20 03:57:25;;;;;;;19.38;14.65;;;;;;;;;;4946695;29;20431;-83
2021/12/20 03:59:53;;;;;;;16.98;12.93;;;;;;;;;;4948194;29;20188;-83
2021/12/20 04:02:20;;;;;;;19.98;14.15;;;;;;;;;;4964601;29;20172;-83
2021/12/20 04:04:46;;;;;;;20.92;15.40;;;;;;;;;;4940074;29;20200;-84
2021/12/20 04:07:12;;;;;;;18.88;13.73;;;;;;;;;;4964118;28;20244;-86
2021/12/20 04:09:38;;;;;;;19.15;13.93;;;;;;;;;;4964423;28;20189;-83
2021/12/20 04:12:05;;;;;;;19.48;15.60;;;;;;;;;;4964189;28;20177;-82
2021/12/20 04:14:31;;;;;;;20.08;14.43;;;;;;;;;;4966138;29;20188;-84
2021/12/20 04:16:57;;;;;;;19.83;14.98;;;;;;;;;;4943796;29;20651;-85
2021/12/20 04:19:23;;;;;;;21.75;15.15;;;;;;;;;;4944066;29;20264;-81
2021/12/20 04:21:49;;;;;;;20.67;15.27;;;;;;;;;;4944612;29;20185;-82
2021/12/20 04:24:15;;;;;;;21.67;14.07;;;;;;;;;;4964358;29;20444;-81
2021/12/20 04:26:41;;;;;;;18.55;14.27;;;;;;;;;;4949230;29;20455;-82
2021/12/20 04:29:07;;;;;;;19.23;12.65;;;;;;;;;;4944322;29;20247;-80
2021/12/20 04:31:35;;;;;;;18.80;14.18;;;;;;;;;;4947689;29;20259;-83
2021/12/20 04:34:01;;;;;;;21.15;14.35;;;;;;;;;;4967330;28;20228;-81
2021/12/20 04:36:29;;;;;;;24.77;15.55;;;;;;;;;;4967475;29;20276;-87
2021/12/20 04:38:55;;;;;;;22.10;15.75;;;;;;;;;;4951139;29;20164;-81
2021/12/20 04:41:21;;;;;;;20.33;14.18;;;;;;;;;;4952948;29;20594;-80
2021/12/20 04:43:47;;;;;;;18.25;13.57;;;;;;;;;;4968127;28;20215;-81
2021/12/20 04:46:13;;;;;;;21.60;13.30;;;;;;;;;;4967292;28;20220;-82
2021/12/20 04:48:39;;;;;;;19.13;14.07;;;;;;;;;;4967500;29;20196;-83
2021/12/20 04:51:05;;;;;;;17.55;12.43;;;;;;;;;;4949930;28;20172;-83
2021/12/20 04:53:31;;;;;;;14.30;11.20;;;;;;;;;;4950822;29;20204;-81
2021/12/20 04:55:57;;;;;;;18.52;13.00;;;;;;;;;;4967080;29;20202;-79
2021/12/20 04:58:23;;;;;;;18.20;14.02;;;;;;;;;;4967555;29;20247;-82
2021/12/20 05:00:49;;;;;;;17.90;12.68;;;;;;;;;;4967565;29;20180;-83
2021/12/20 05:03:15;;;;;;;15.43;12.25;;;;;;;;;;4962624;28;20192;-80
2021/12/20 05:05:42;;;;;;;19.20;13.55;;;;;;;;;;4967355;29;20609;-81
2021/12/20 05:08:10;;;;;;;21.10;14.35;;;;;;;;;;4967334;29;20188;-81
2021/12/20 05:10:39;;;;;;;20.33;14.43;;;;;;;;;;4966841;29;20268;-83
2021/12/20 05:13:06;;;;;;;17.85;14.50;;;;;;;;;;4967225;28;20212;-82
2021/12/20 05:15:32;;;;;;;17.27;14.02;;;;;;;;;;4966331;29;20181;-79
2021/12/20 05:17:59;;;;;;;19.38;14.98;;;;;;;;;;4966644;28;20172;-81
2021/12/20 05:20:26;;;;;;;19.05;11.57;;;;;;;;;;4949636;29;20168;-83
2021/12/20 05:22:52;;;;;;;20.23;13.48;;;;;;;;;;4966717;28;20212;-81
2021/12/20 05:25:18;;;;;;;18.90;13.43;;;;;;;;;;4966748;28;20212;-83
2021/12/20 05:27:44;;;;;;;17.40;12.60;;;;;;;;;;4966790;29;20219;-81
2021/12/20 05:30:11;;;;;;;21.13;13.45;;;;;;;;;;4966907;28;20255;-83
2021/12/20 05:32:37;;;;;;;17.92;12.57;;;;;;;;;;4949498;29;20212;-79
2021/12/20 05:35:04;;;;;;;15.90;11.85;;;;;;;;;;4965042;28;20577;-82
2021/12/20 05:37:30;;;;;;;18.80;13.50;;;;;;;;;;4966350;29;20184;-81
2021/12/20 05:39:56;;;;;;;17.50;12.05;;;;;;;;;;4964296;28;20195;-81
2021/12/20 05:42:22;;;;;;;20.75;13.82;;;;;;;;;;4951321;28;20192;-80
2021/12/20 05:44:50;;;;;;;16.05;10.90;;;;;;;;;;4967563;29;20177;-81
2021/12/20 05:47:17;;;;;;;18.90;12.43;;;;;;;;;;4966114;29;20184;-80
2021/12/20 05:49:43;;;;;;;17.00;12.23;;;;;;;;;;4965471;28;20192;-82
2021/12/20 05:52:09;;;;;;;22.23;12.95;;;;;;;;;;4966162;28;20192;-83
2021/12/20 05:54:35;;;;;;;17.73;11.60;;;;;;;;;;4966364;28;20651;-80
2021/12/20 05:57:00;;;;;;;16.15;11.60;;;;;;;;;;4949175;29;20181;-80
2021/12/20 05:59:26;;;;;;;18.20;11.85;;;;;;;;;;4949901;29;20212;-83
2021/12/20 06:01:52;;;;;;;19.45;13.40;;;;;;;;;;4946358;29;20219;-80
2021/12/20 06:04:19;;;;;;;17.42;10.73;;;;;;;;;;4945702;29;20736;-81
2021/12/20 06:06:45;;;;;;;20.58;12.25;;;;;;;;;;4946067;29;20284;-80
2021/12/20 06:09:11;;;;;;;16.10;11.20;;;;;;;;;;4965789;28;20188;-81
2021/12/20 06:11:37;;;;;;;16.63;10.90;;;;;;;;;;4967221;29;20219;-81
2021/12/20 06:14:03;;;;;;;19.48;12.00;;;;;;;;;;4946048;29;20211;-82
2021/12/20 06:16:29;;;;;;;19.80;11.80;;;;;;;;;;4965602;28;20184;-81
2021/12/20 06:18:55;;;;;;;15.65;10.90;;;;;;;;;;4935459;29;20239;-81
2021/12/20 06:21:21;;;;;;;20.63;11.27;;;;;;;;;;4965975;29;20192;-80
2021/12/20 06:23:47;;;;;;;14.73;9.13;;;;;;;;;;4967448;29;20634;-81
2021/12/20 06:26:13;;;;;;;19.48;11.30;;;;;;;;;;4945930;29;20188;-80
2021/12/20 06:28:39;;;;;;;15.98;10.85;;;;;;;;;;4965515;28;20208;-82
2021/12/20 06:31:05;;;;;;;15.07;11.45;;;;;;;;;;4964804;28;20199;-82
2021/12/20 06:33:31;;;;;;;18.50;10.70;;;;;;;;;;4965258;28;20287;-80
2021/12/20 06:35:57;;;;;;;15.55;10.95;;;;;;;;;;4965956;29;20176;-81
2021/12/20 06:38:23;;;;;;;14.02;10.27;;;;;;;;;;4949104;29;20192;-81
2021/12/20 06:40:50;;;;;;;15.73;10.32;;;;;;;;;;4944732;29;20212;-80
2021/12/20 06:43:16;;;;;;;20.30;12.25;;;;;;;;;;4965885;29;20196;-79
2021/12/20 06:45:42;;;;;;;17.88;11.80;;;;;;;;;;4944614;29;20193;-81
2021/12/20 06:48:09;;;;;;;21.98;13.15;;;;;;;;;;4965178;28;20195;-80
2021/12/20 06:50:35;;;;;;;17.48;12.48;;;;;;;;;;4947949;29;20175;-80
2021/12/20 06:53:01;;;;;;;16.33;11.27;;;;;;;;;;4965266;28;20204;-80
2021/12/20 06:55:27;;;;;;;16.45;11.70;;;;;;;;;;4946911;29;20235;-80
2021/12/20 06:57:53;;;;;;;14.55;11.70;;;;;;;;;;4961049;29;20282;-81
2021/12/20 07:00:20;;;;;;;19.58;11.07;;;;;;;;;;4964193;29;20181;-80
2021/12/20 07:02:45;;;;;;;19.15;13.13;;;;;;;;;;4951573;29;20177;-80
2021/12/20 07:05:12;;;;;;;17.48;13.20;;;;;;;;;;4962379;28;20283;-81
2021/12/20 07:07:38;;;;;;;20.55;12.95;;;;;;;;;;4958943;28;20196;-80
2021/12/20 07:10:05;;;;;;;15.30;12.52;;;;;;;;;;4955030;28;20188;-80
2021/12/20 07:12:33;;;;;;;22.50;13.85;;;;;;;;;;4964847;28;20223;-81
2021/12/20 07:15:00;;;;;;;18.58;13.38;;;;;;;;;;4956023;28;20170;-82
2021/12/20 07:17:26;;;;;;;21.33;14.25;;;;;;;;;;4961424;29;20169;-80
2021/12/20 07:19:52;;;;;;;22.70;14.05;;;;;;;;;;4964139;29;20200;-83
2021/12/20 07:22:18;;;;;;;20.20;12.77;;;;;;;;;;4944451;29;20259;-82
2021/12/20 07:24:44;;;;;;;17.08;11.48;;;;;;;;;;4961377;28;20267;-81
2021/12/20 07:27:11;;;;;;;18.80;12.98;;;;;;;;;;4938786;28;20570;-81
2021/12/20 07:29:37;;;;;;;18.70;13.35;;;;;;;;;;4965438;29;20191;-82
2021/12/20 07:32:04;;;;;;;17.35;12.68;;;;;;;;;;4944459;29;20657;-81
2021/12/20 07:34:30;;;;;;;19.98;12.25;;;;;;;;;;4946768;29;20208;-79
2021/12/20 07:36:56;;;;;;;21.13;12.87;;;;;;;;;;4963890;29;20235;-82
2021/12/20 07:39:22;;;;;;;17.85;12.30;;;;;;;;;;4962222;28;20459;-81
2021/12/20 07:41:49;;;;;;;20.55;12.40;;;;;;;;;;4951324;29;20181;-80
2021/12/20 07:44:15;;;;;;;18.75;13.25;;;;;;;;;;4953060;28;20213;-81
2021/12/20 07:46:41;;;;;;;15.10;12.10;;;;;;;;;;4958807;28;20251;-80
2021/12/20 07:49:07;;;;;;;19.83;11.68;;;;;;;;;;4936808;29;20200;-80
2021/12/20 07:51:33;;;;;;;20.07;11.60;;;;;;;;;;4950282;29;20191;-79
2021/12/20 07:53:59;;;;;;;17.37;10.67;;;;;;;;;;4964802;28;20554;-78
2021/12/20 07:56:25;;;;;;;16.38;10.32;;;;;;;;;;4965440;29;20424;-80
2021/12/20 07:58:51;;;;;;;14.57;10.45;;;;;;;;;;4944189;29;20200;-82
2021/12/20 08:01:17;;;;;;;15.73;10.02;;;;;;;;;;4963271;28;20176;-82
2021/12/20 08:03:43;;;;;;;15.80;9.75;;;;;;;;;;4967394;29;20196;-81
2021/12/20 08:06:09;;;;;;;10.18;6.90;;;;;;;;;;4950783;28;20228;-79
2021/12/20 08:08:35;;;;;;;7.57;6.15;;;;;;;;;;4967341;29;20195;-80
2021/12/20 08:11:01;;;;;;;7.80;5.85;;;;;;;;;;4947407;29;20193;-83
2021/12/20 08:13:27;;;;;;;9.43;5.85;;;;;;;;;;4947375;29;20227;-84
2021/12/20 08:15:53;;;;;;;7.18;5.38;;;;;;;;;;4967654;29;20184;-85
2021/12/20 08:18:20;;;;;;;6.88;5.80;;;;;;;;;;4950304;29;20260;-86
2021/12/20 08:20:46;;;;;;;8.73;6.05;;;;;;;;;;4951625;29;20241;-85
2021/12/20 08:23:12;;;;;;;7.53;6.05;;;;;;;;;;4968394;28;20196;-83
2021/12/20 08:25:39;;;;;;;8.88;6.32;;;;;;;;;;4948329;29;20188;-83
2021/12/20 08:28:05;;;;;;;8.30;5.90;;;;;;;;;;4966595;29;20180;-85
2021/12/20 08:30:31;;;;;;;10.52;6.82;;;;;;;;;;4954705;28;20203;-83
2021/12/20 08:32:58;;;;;;;9.05;6.93;;;;;;;;;;4967863;28;20201;-84
2021/12/20 08:35:24;;;;;;;8.95;6.38;;;;;;;;;;4951437;29;20176;-83
2021/12/20 08:37:50;;;;;;;12.02;7.72;;;;;;;;;;4947516;29;20195;-81
2021/12/20 08:40:16;;;;;;;10.30;7.10;;;;;;;;;;4966899;28;20193;-85
2021/12/20 08:42:44;;;;;;;10.20;7.40;;;;;;;;;;4947709;29;20192;-82
2021/12/20 08:45:10;;;;;;;13.80;8.73;;;;;;;;;;4949240;28;20200;-83
2021/12/20 08:47:36;;;;;;;11.73;8.43;;;;;;;;;;4949596;29;20220;-83
2021/12/20 08:50:04;;;;;;;12.25;8.25;;;;;;;;;;4965940;28;20252;-81
2021/12/20 08:52:30;;;;;;;11.75;7.55;;;;;;;;;;4948529;29;20216;-80
2021/12/20 08:54:55;;;;;;;16.77;8.70;;;;;;;;;;4964462;29;20189;-81
2021/12/20 08:57:21;;;;;;;11.33;8.00;;;;;;;;;;4949114;29;20198;-84
2021/12/20 08:59:47;;;;;;;13.70;8.77;;;;;;;;;;4951429;29;20431;-83
2021/12/20 09:02:13;;;;;;;13.50;8.95;;;;;;;;;;4938970;29;20200;-79
2021/12/20 09:04:39;;;;;;;14.00;8.57;;;;;;;;;;4957037;28;20194;-83
2021/12/20 09:07:10;;;;;;;17.52;9.77;;;;;;;;;;4944172;29;20225;-82
2021/12/20 09:09:39;;;;;;;13.85;9.90;;;;;;;;;;4946998;29;20185;-82
2021/12/20 09:12:06;;;;;;;16.95;10.10;;;;;;;;;;4951512;29;20779;-82
2021/12/20 09:14:33;;;;;;;12.50;9.15;;;;;;;;;;4945811;29;20231;-82
2021/12/20 09:16:59;;;;;;;15.60;10.93;;;;;;;;;;4941903;29;20181;-82
2021/12/20 09:19:26;;;;;;;15.13;9.10;;;;;;;;;;4939937;29;20220;-82
2021/12/20 09:21:52;;;;;;;14.25;8.63;;;;;;;;;;4943706;29;20213;-84
2021/12/20 09:24:18;;;;;;;17.50;11.00;;;;;;;;;;4945469;29;20200;-81
2021/12/20 09:26:44;;;;;;;17.58;11.57;;;;;;;;;;4947386;29;20181;-85
2021/12/20 09:29:10;;;;;;;18.83;11.38;;;;;;;;;;4952502;29;20197;-81
2021/12/20 09:31:36;;;;;;;15.80;10.10;;;;;;;;;;4953811;29;20199;-85
2021/12/20 09:34:02;;;;;;;17.08;9.93;;;;;;;;;;4937593;29;20208;-82
2021/12/20 09:36:29;;;;;;;16.45;9.82;;;;;;;;;;4932472;29;20204;-84
2021/12/20 09:38:59;;;;;;;17.83;11.65;;;;;;;;;;4946130;29;20252;-81
2021/12/20 09:44:06;;;;;;;16.23;10.98;;;;;;;;;;4942428;29;20200;-82
2021/12/20 09:46:32;;;;;;;14.63;10.32;;;;;;;;;;4941505;29;20204;-82
2021/12/20 09:48:58;;;;;;;17.88;10.65;;;;;;;;;;4938070;29;20196;-82
2021/12/20 09:51:24;;;;;;;16.23;10.48;;;;;;;;;;4954265;29;20438;-81
2021/12/20 09:53:50;;;;;;;15.95;10.32;;;;;;;;;;4939641;29;20220;-81
2021/12/20 09:56:18;;;;;;;16.07;11.93;;;;;;;;;;4946064;29;20221;-83
2021/12/20 09:58:48;;;;;;;13.77;9.45;;;;;;;;;;4946913;29;20468;-82
2021/12/20 10:01:15;;;;;;;15.00;9.48;;;;;;;;;;4945041;29;20186;-84
2021/12/20 10:03:43;;;;;;;17.05;10.85;;;;;;;;;;4944490;29;20260;-83
2021/12/20 10:06:09;;;;;;;20.92;10.75;;;;;;;;;;4960626;28;20225;-82
2021/12/20 10:08:37;;;;;;;13.50;8.98;;;;;;;;;;4945858;29;20181;-85
2021/12/20 10:11:17;;;;;;;16.85;11.25;;;;;;;;;;4944427;29;20181;-84
2021/12/20 10:13:42;;;;;;;12.52;7.95;;;;;;;;;;4954741;29;20217;-85
2021/12/20 10:16:22;;;;;;;14.73;10.10;;;;;;;;;;4934177;29;20494;-84
2021/12/20 10:18:49;;;;;;;10.68;7.45;;;;;;;;;;4944636;29;20460;-82
2021/12/20 10:21:15;;;;;;;12.90;7.95;;;;;;;;;;4945137;29;20702;-85
2021/12/20 10:23:44;;;;;;;14.75;8.07;;;;;;;;;;4945869;29;20189;-85
2021/12/20 10:26:19;;;;;;;12.30;7.72;;;;;;;;;;4943698;29;20193;-82
2021/12/20 10:28:45;;;;;;;13.35;8.40;;;;;;;;;;4947097;29;20192;-84
2021/12/20 10:31:14;;;;;;;12.32;8.00;;;;;;;;;;4946620;29;20189;-82
2021/12/20 10:33:41;;;;;;;12.75;8.10;;;;;;;;;;4943123;29;20213;-81
2021/12/20 10:36:10;;;;;;;11.18;8.60;;;;;;;;;;4946752;29;20180;-82
2021/12/20 10:38:41;;;;;;;11.77;7.35;;;;;;;;;;4944125;29;20181;-82
2021/12/20 10:41:11;;;;;;;13.18;8.30;;;;;;;;;;4942198;29;20204;-83
2021/12/20 10:43:40;;;;;;;12.40;8.80;;;;;;;;;;4941926;29;20197;-84
2021/12/20 10:46:14;;;;;;;12.77;8.88;;;;;;;;;;4944945;29;20212;-85
2021/12/20 10:48:40;;;;;;;14.93;8.88;;;;;;;;;;4944144;29;20269;-83
2021/12/20 10:51:15;;;;;;;10.20;7.50;;;;;;;;;;4946332;29;20189;-84
2021/12/20 10:53:45;;;;;;;11.40;7.57;;;;;;;;;;4943107;29;20312;-83
2021/12/20 10:56:11;;;;;;;11.55;9.00;;;;;;;;;;4945020;29;20184;-84
2021/12/20 10:58:38;;;;;;;15.60;9.98;;;;;;;;;;4945518;29;20204;-84
2021/12/20 11:01:04;;;;;;;10.90;8.48;;;;;;;;;;4945860;29;20185;-84
2021/12/20 11:03:36;;;;;;;10.90;8.20;;;;;;;;;;4943060;29;20289;-85
2021/12/20 11:11:23;;;;;;;24.10;12.52;;;;;;;;;;4926939;29;20311;-85
2021/12/20 11:13:49;;;;;;;13.13;9.90;;;;;;;;;;4922996;29;20316;-87
2021/12/20 11:16:28;;;;;;;13.85;9.80;;;;;;;;;;4937415;29;20585;-84
2021/12/20 11:19:13;;;;;;;10.30;8.60;;;;;;;;;;4925952;29;20181;-86
2021/12/20 11:21:45;;;;;;;10.98;7.75;;;;;;;;;;4927329;29;20181;-87
2021/12/20 11:24:12;;;;;;;11.52;7.93;;;;;;;;;;4925590;29;20211;-85
2021/12/20 11:26:39;;;;;;;12.90;8.13;;;;;;;;;;4926044;29;20197;-83
2021/12/20 11:29:06;;;;;;;8.90;7.00;;;;;;;;;;4926410;29;20182;-83
2021/12/20 11:31:32;;;;;;;9.88;8.32;;;;;;;;;;4933289;29;20221;-85
2021/12/20 11:34:00;;;;;;;7.35;6.35;;;;;;;;;;4923304;29;20224;-87
2021/12/20 11:36:26;;;;;;;6.18;5.57;;;;;;;;;;4923258;29;20218;-82
2021/12/20 11:38:53;;;;;;;8.45;5.45;;;;;;;;;;4927464;29;20193;-84
2021/12/20 11:41:19;;;;;;;5.72;4.75;;;;;;;;;;4926954;29;20220;-85
2021/12/20 11:43:46;;;;;;;5.28;4.68;;;;;;;;;;4926276;29;20190;-85
2021/12/20 11:46:14;;;;;;;7.47;5.18;;;;;;;;;;4925669;29;20201;-86
2021/12/20 11:48:42;;;;;;;8.30;6.50;;;;;;;;;;4938746;29;20241;-86
2021/12/20 11:51:08;;;;;;;11.55;6.13;;;;;;;;;;4938770;29;20192;-85
2021/12/20 11:53:35;;;;;;;8.75;5.85;;;;;;;;;;4930628;29;20201;-84
2021/12/20 11:56:01;;;;;;;6.75;5.18;;;;;;;;;;4924684;29;20186;-84
2021/12/20 11:58:30;;;;;;;7.13;4.95;;;;;;;;;;4924732;29;20189;-83
2021/12/20 12:01:00;;;;;;;8.27;5.25;;;;;;;;;;4925978;29;20182;-83
2021/12/20 12:03:26;;;;;;;6.80;4.70;;;;;;;;;;4938980;29;20228;-85
2021/12/20 12:05:56;;;;;;;5.95;5.35;;;;;;;;;;4933588;29;20541;-84
2021/12/20 12:08:25;;;;;;;7.85;5.90;;;;;;;;;;4936821;29;20559;-83
2021/12/20 12:10:52;;;;;;;5.78;5.18;;;;;;;;;;4939116;29;20200;-83
2021/12/20 12:13:19;;;;;;;6.10;4.97;;;;;;;;;;4932485;29;20221;-86
2021/12/20 12:16:04;;;;;;;6.35;5.30;;;;;;;;;;4953228;29;20189;-85
2021/12/20 12:18:50;;;;;;;6.15;5.55;;;;;;;;;;4945422;29;20196;-84
2021/12/20 12:21:32;;;;;;;7.40;6.10;;;;;;;;;;4942389;29;20197;-84
2021/12/20 12:23:58;;;;;;;9.52;6.25;;;;;;;;;;4931006;29;20182;-83
2021/12/20 12:26:33;;;;;;;8.63;6.03;;;;;;;;;;4937090;29;20196;-84
2021/12/20 12:29:00;;;;;;;6.70;5.38;;;;;;;;;;4957042;29;20256;-87
2021/12/20 12:31:27;;;;;;;7.50;5.32;;;;;;;;;;4939998;29;20189;-86
2021/12/20 12:34:12;;;;;;;9.75;7.30;;;;;;;;;;4944684;29;20209;-84
2021/12/20 12:36:40;;;;;;;7.50;6.55;;;;;;;;;;4940243;29;20190;-84
2021/12/20 12:39:11;;;;;;;7.95;5.50;;;;;;;;;;4944324;29;20173;-84
2021/12/20 12:41:45;;;;;;;6.88;5.82;;;;;;;;;;4941804;29;20181;-84
2021/12/20 12:44:12;;;;;;;8.55;6.75;;;;;;;;;;4937346;29;20189;-84
2021/12/20 12:46:41;;;;;;;8.95;6.72;;;;;;;;;;4941964;29;20188;-83
2021/12/20 12:49:20;;;;;;;11.00;7.15;;;;;;;;;;4942507;29;20205;-84
2021/12/20 12:51:46;;;;;;;11.40;7.03;;;;;;;;;;4944552;29;20217;-84
2021/12/20 12:54:32;;;;;;;7.97;6.82;;;;;;;;;;4946085;29;20220;-85
2021/12/20 12:57:13;;;;;;;10.55;7.10;;;;;;;;;;4945091;29;20177;-83
2021/12/20 12:59:41;;;;;;;10.05;6.68;;;;;;;;;;4948504;29;20181;-83
2021/12/20 13:02:15;;;;;;;12.05;7.78;;;;;;;;;;4947670;29;20185;-86
2021/12/20 13:05:14;;;;;;;8.10;6.97;;;;;;;;;;4961948;28;20268;-82
2021/12/20 13:07:47;;;;;;;10.25;6.85;;;;;;;;;;4922402;29;20205;-84
2021/12/20 13:10:13;;;;;;;15.38;6.68;;;;;;;;;;4932715;29;20200;-82
2021/12/20 13:12:46;;;;;;;8.70;6.47;;;;;;;;;;4930512;29;20210;-83
2021/12/20 13:15:18;;;;;;;10.63;8.05;;;;;;;;;;4929172;29;20166;-81
2021/12/20 13:17:48;;;;;;;13.38;8.00;;;;;;;;;;4922486;29;20186;-83
2021/12/20 13:22:56;;;;;;;9.63;7.22;;;;;;;;;;4927874;29;20554;-82
2021/12/20 13:25:31;;;;;;;11.70;7.75;;;;;;;;;;4928013;29;20186;-82
2021/12/20 13:27:57;;;;;;;10.30;6.63;;;;;;;;;;4924446;29;20277;-81
2021/12/20 13:30:31;;;;;;;10.60;7.65;;;;;;;;;;4928157;29;20323;-82
2021/12/20 13:32:57;;;;;;;11.35;7.15;;;;;;;;;;4924613;29;20201;-83
2021/12/20 13:35:24;;;;;;;12.15;7.70;;;;;;;;;;4928308;29;20182;-84
2021/12/20 13:37:50;;;;;;;9.85;7.20;;;;;;;;;;4927078;29;20205;-82
2021/12/20 13:40:17;;;;;;;10.68;6.80;;;;;;;;;;4928028;29;20194;-82
2021/12/20 13:42:54;;;;;;;10.32;7.30;;;;;;;;;;4927934;29;20194;-84
2021/12/20 13:45:21;;;;;;;12.27;7.90;;;;;;;;;;4926740;29;20186;-82
2021/12/20 13:47:47;;;;;;;9.88;7.07;;;;;;;;;;4920192;29;20178;-82
2021/12/20 13:50:17;;;;;;;9.77;7.50;;;;;;;;;;4926357;29;20257;-83
2021/12/20 13:52:47;;;;;;;11.50;7.55;;;;;;;;;;4928020;29;20264;-82
2021/12/20 13:55:13;;;;;;;10.80;7.07;;;;;;;;;;4927577;29;20680;-82
2021/12/20 13:57:39;;;;;;;8.00;6.90;;;;;;;;;;4923424;29;20187;-82
2021/12/20 14:00:15;;;;;;;10.95;7.50;;;;;;;;;;4925081;29;20695;-82
2021/12/20 14:02:43;;;;;;;9.48;7.45;;;;;;;;;;4925414;29;20189;-82
2021/12/20 14:05:12;;;;;;;9.68;7.28;;;;;;;;;;4932374;29;20579;-82
2021/12/20 14:07:42;;;;;;;10.07;6.90;;;;;;;;;;4965609;29;20191;-84
2021/12/20 14:10:08;;;;;;;8.55;7.40;;;;;;;;;;4965424;29;20180;-81
2021/12/20 14:12:42;;;;;;;9.13;6.90;;;;;;;;;;4965702;28;20189;-81
2021/12/20 14:15:12;;;;;;;9.60;7.18;;;;;;;;;;4965580;29;20176;-84
2021/12/20 14:17:57;;;;;;;9.98;7.47;;;;;;;;;;4946768;29;20915;-83
2021/12/20 14:20:44;;;;;;;8.20;6.28;;;;;;;;;;4963473;29;20273;-83
2021/12/20 14:23:31;;;;;;;8.55;6.65;;;;;;;;;;4951282;29;20224;-85
2021/12/20 14:26:16;;;;;;;10.20;7.55;;;;;;;;;;4965464;28;20207;-82
2021/12/20 14:28:44;;;;;;;7.15;5.45;;;;;;;;;;4945519;29;20190;-82
2021/12/20 14:31:22;;;;;;;8.45;6.32;;;;;;;;;;4944746;29;20226;-82
2021/12/20 14:33:52;;;;;;;6.90;5.82;;;;;;;;;;4964778;28;20212;-81
2021/12/20 14:36:18;;;;;;;6.15;5.45;;;;;;;;;;4951361;28;20191;-81
2021/12/20 14:39:08;;;;;;;6.85;5.70;;;;;;;;;;4939397;29;20209;-82
2021/12/20 14:41:37;;;;;;;8.55;6.13;;;;;;;;;;4965258;29;20183;-80
2021/12/20 14:44:26;;;;;;;7.55;5.30;;;;;;;;;;4944569;29;20184;-81
2021/12/20 14:47:03;;;;;;;8.80;6.20;;;;;;;;;;4962369;29;20188;-80
2021/12/20 14:49:35;;;;;;;10.30;7.70;;;;;;;;;;4964548;29;20184;-81
2021/12/20 14:52:27;;;;;;;8.32;6.57;;;;;;;;;;4944595;29;20184;-81
2021/12/20 14:54:55;;;;;;;6.72;5.20;;;;;;;;;;4959057;28;20204;-81
2021/12/20 14:57:29;;;;;;;6.00;5.40;;;;;;;;;;4972981;28;20180;-81